Flugplatz Mönchengladbach

Bericht für EDLN

vom 20.10. um 19:50 UTC

Wind 5 kt aus 20°

Sichtweite 7000 m

bedeckt in 500 ft

Temperatur 12.0°C

Taupunkt 11.0°C

Luftfeuchtigkeit 94%

Luftdruck 1009 hPa

EDLN 201950Z AUTO 02005KT 350V050 7000 // OVC005/// 12/11 Q1009

Prognose für EDLN

vom 20.10. um 00:00 UTC

Zwischen 00:00 UTC und 00:00 UTC zeitweise

Sichtweite 4000 m

Regen

aufgebrochene Bewölkung in 400 ft


Zwischen 00:00 UTC und 00:00 UTC

Wind 4 kt aus 30°

Sichtweite 6000 m

aufgebrochene Bewölkung in 800 ft


Am 21.10. zwischen 00:00 UTC und 00:00 UTC zeitweise

Sichtweite 1200 m

schwacher Sprühregen

feuchter Dunst

aufgebrochene Bewölkung in 300 ft

TAF EDLN 201700Z 2018/2103 03004KT 6000 BKN008 TEMPO 2018/2024 4000 RA BKN004 TEMPO 2100/2103 1200 -DZ BR BKN003
Impressum